sensor_id;sensor_type;location;lat;lon;timestamp;P1;durP1;ratioP1;P2;durP2;ratioP2
24206;SDS011;12351;52.284;9.160;2023-07-31T00:00:35;2.33;;;1.10;;
24206;SDS011;12351;52.284;9.160;2023-07-31T00:03:22;2.42;;;1.10;;
24206;SDS011;12351;52.284;9.160;2023-07-31T00:06:09;2.85;;;1.10;;
24206;SDS011;12351;52.284;9.160;2023-07-31T00:08:56;1.17;;;1.07;;
24206;SDS011;12351;52.284;9.160;2023-07-31T00:11:43;3.85;;;1.20;;
24206;SDS011;12351;52.284;9.160;2023-07-31T00:14:30;1.37;;;0.82;;
24206;SDS011;12351;52.284;9.160;2023-07-31T00:17:17;1.50;;;1.00;;
24206;SDS011;12351;52.284;9.160;2023-07-31T00:20:04;1.32;;;1.00;;
24206;SDS011;12351;52.284;9.160;2023-07-31T00:22:51;1.85;;;1.10;;
24206;SDS011;12351;52.284;9.160;2023-07-31T00:25:39;1.02;;;0.80;;
24206;SDS011;12351;52.284;9.160;2023-07-31T00:28:26;2.35;;;0.98;;
24206;SDS011;12351;52.284;9.160;2023-07-31T00:31:14;1.15;;;0.62;;
24206;SDS011;12351;52.284;9.160;2023-07-31T00:34:00;0.90;;;0.77;;
24206;SDS011;12351;52.284;9.160;2023-07-31T00:36:47;1.37;;;0.80;;
24206;SDS011;12351;52.284;9.160;2023-07-31T00:39:34;1.00;;;0.90;;
24206;SDS011;12351;52.284;9.160;2023-07-31T00:42:21;1.50;;;0.90;;
24206;SDS011;12351;52.284;9.160;2023-07-31T00:45:08;0.97;;;0.60;;
24206;SDS011;12351;52.284;9.160;2023-07-31T00:47:56;1.55;;;0.80;;
24206;SDS011;12351;52.284;9.160;2023-07-31T00:50:43;1.22;;;0.60;;
24206;SDS011;12351;52.284;9.160;2023-07-31T00:53:30;1.10;;;0.65;;
24206;SDS011;12351;52.284;9.160;2023-07-31T00:56:18;0.80;;;0.60;;
24206;SDS011;12351;52.284;9.160;2023-07-31T00:59:04;1.87;;;0.90;;
24206;SDS011;12351;52.284;9.160;2023-07-31T01:01:51;0.90;;;0.63;;
24206;SDS011;12351;52.284;9.160;2023-07-31T01:04:38;0.83;;;0.70;;
24206;SDS011;12351;52.284;9.160;2023-07-31T01:10:08;0.80;;;0.60;;
24206;SDS011;12351;52.284;9.160;2023-07-31T01:12:55;2.67;;;0.90;;
24206;SDS011;12351;52.284;9.160;2023-07-31T01:15:44;0.83;;;0.60;;
24206;SDS011;12351;52.284;9.160;2023-07-31T01:18:31;1.37;;;0.73;;
24206;SDS011;12351;52.284;9.160;2023-07-31T01:26:49;0.97;;;0.53;;
24206;SDS011;12351;52.284;9.160;2023-07-31T01:32:28;1.23;;;0.70;;
24206;SDS011;12351;52.284;9.160;2023-07-31T01:35:15;0.50;;;0.50;;
24206;SDS011;12351;52.284;9.160;2023-07-31T01:38:02;0.60;;;0.57;;
24206;SDS011;12351;52.284;9.160;2023-07-31T01:40:52;0.80;;;0.60;;
24206;SDS011;12351;52.284;9.160;2023-07-31T01:43:39;0.67;;;0.67;;
24206;SDS011;12351;52.284;9.160;2023-07-31T01:46:25;0.80;;;0.77;;
24206;SDS011;12351;52.284;9.160;2023-07-31T01:49:13;1.03;;;0.83;;
24206;SDS011;12351;52.284;9.160;2023-07-31T01:52:00;0.60;;;0.60;;
24206;SDS011;12351;52.284;9.160;2023-07-31T01:54:47;0.67;;;0.67;;
24206;SDS011;12351;52.284;9.160;2023-07-31T01:57:36;0.97;;;0.70;;
24206;SDS011;12351;52.284;9.160;2023-07-31T02:00:23;1.27;;;0.72;;
24206;SDS011;12351;52.284;9.160;2023-07-31T02:03:10;1.00;;;0.80;;
24206;SDS011;12351;52.284;9.160;2023-07-31T02:05:58;1.00;;;0.90;;
24206;SDS011;12351;52.284;9.160;2023-07-31T02:08:45;0.90;;;0.80;;
24206;SDS011;12351;52.284;9.160;2023-07-31T02:11:31;0.87;;;0.80;;
24206;SDS011;12351;52.284;9.160;2023-07-31T02:14:19;1.20;;;1.10;;
24206;SDS011;12351;52.284;9.160;2023-07-31T02:17:06;1.70;;;1.00;;
24206;SDS011;12351;52.284;9.160;2023-07-31T02:19:53;1.20;;;0.88;;
24206;SDS011;12351;52.284;9.160;2023-07-31T02:22:40;1.15;;;1.05;;
24206;SDS011;12351;52.284;9.160;2023-07-31T02:25:27;1.35;;;1.12;;
24206;SDS011;12351;52.284;9.160;2023-07-31T02:28:13;1.10;;;1.00;;
24206;SDS011;12351;52.284;9.160;2023-07-31T02:31:00;2.55;;;1.25;;
24206;SDS011;12351;52.284;9.160;2023-07-31T02:33:47;1.42;;;1.00;;
24206;SDS011;12351;52.284;9.160;2023-07-31T02:36:34;1.43;;;1.00;;
24206;SDS011;12351;52.284;9.160;2023-07-31T02:39:20;1.20;;;1.10;;
24206;SDS011;12351;52.284;9.160;2023-07-31T02:42:07;0.90;;;0.90;;
24206;SDS011;12351;52.284;9.160;2023-07-31T02:44:54;1.40;;;1.25;;
24206;SDS011;12351;52.284;9.160;2023-07-31T02:47:41;2.47;;;1.30;;
24206;SDS011;12351;52.284;9.160;2023-07-31T02:50:28;1.22;;;1.00;;
24206;SDS011;12351;52.284;9.160;2023-07-31T02:53:17;1.50;;;1.40;;
24206;SDS011;12351;52.284;9.160;2023-07-31T02:56:08;1.00;;;0.90;;
24206;SDS011;12351;52.284;9.160;2023-07-31T02:58:54;3.40;;;1.30;;
24206;SDS011;12351;52.284;9.160;2023-07-31T03:01:42;1.40;;;1.10;;
24206;SDS011;12351;52.284;9.160;2023-07-31T03:04:29;1.65;;;1.20;;
24206;SDS011;12351;52.284;9.160;2023-07-31T03:07:16;1.65;;;0.98;;
24206;SDS011;12351;52.284;9.160;2023-07-31T03:10:03;1.40;;;1.00;;
24206;SDS011;12351;52.284;9.160;2023-07-31T03:12:51;1.57;;;1.20;;
24206;SDS011;12351;52.284;9.160;2023-07-31T03:15:38;1.07;;;0.98;;
24206;SDS011;12351;52.284;9.160;2023-07-31T03:18:28;1.37;;;0.88;;
24206;SDS011;12351;52.284;9.160;2023-07-31T03:21:15;2.37;;;1.15;;
24206;SDS011;12351;52.284;9.160;2023-07-31T03:24:02;2.70;;;1.02;;
24206;SDS011;12351;52.284;9.160;2023-07-31T03:26:50;2.92;;;1.32;;
24206;SDS011;12351;52.284;9.160;2023-07-31T03:29:37;1.77;;;1.07;;
24206;SDS011;12351;52.284;9.160;2023-07-31T03:32:24;1.62;;;0.85;;
24206;SDS011;12351;52.284;9.160;2023-07-31T03:35:11;1.60;;;1.00;;
24206;SDS011;12351;52.284;9.160;2023-07-31T03:37:58;1.67;;;0.95;;
24206;SDS011;12351;52.284;9.160;2023-07-31T03:40:45;2.45;;;0.93;;
24206;SDS011;12351;52.284;9.160;2023-07-31T03:43:32;1.30;;;0.98;;
24206;SDS011;12351;52.284;9.160;2023-07-31T03:46:19;1.93;;;0.80;;
24206;SDS011;12351;52.284;9.160;2023-07-31T03:49:06;1.50;;;0.70;;
24206;SDS011;12351;52.284;9.160;2023-07-31T03:51:53;1.22;;;0.70;;
24206;SDS011;12351;52.284;9.160;2023-07-31T03:54:40;1.23;;;0.60;;
24206;SDS011;12351;52.284;9.160;2023-07-31T03:57:29;0.60;;;0.50;;
24206;SDS011;12351;52.284;9.160;2023-07-31T04:00:17;0.73;;;0.60;;
24206;SDS011;12351;52.284;9.160;2023-07-31T04:03:04;2.15;;;0.60;;
24206;SDS011;12351;52.284;9.160;2023-07-31T04:05:53;1.87;;;0.40;;
24206;SDS011;12351;52.284;9.160;2023-07-31T04:08:40;0.83;;;0.40;;
24206;SDS011;12351;52.284;9.160;2023-07-31T04:11:27;0.80;;;0.50;;
24206;SDS011;12351;52.284;9.160;2023-07-31T04:14:14;0.77;;;0.43;;
24206;SDS011;12351;52.284;9.160;2023-07-31T04:17:01;0.80;;;0.30;;
24206;SDS011;12351;52.284;9.160;2023-07-31T04:19:47;0.83;;;0.30;;
24206;SDS011;12351;52.284;9.160;2023-07-31T04:22:34;0.42;;;0.30;;
24206;SDS011;12351;52.284;9.160;2023-07-31T04:25:21;0.60;;;0.43;;
24206;SDS011;12351;52.284;9.160;2023-07-31T04:28:08;0.50;;;0.40;;
24206;SDS011;12351;52.284;9.160;2023-07-31T04:30:55;0.77;;;0.70;;
24206;SDS011;12351;52.284;9.160;2023-07-31T04:33:42;2.22;;;1.10;;
24206;SDS011;12351;52.284;9.160;2023-07-31T04:36:29;1.67;;;1.42;;
24206;SDS011;12351;52.284;9.160;2023-07-31T04:39:16;3.30;;;2.15;;
24206;SDS011;12351;52.284;9.160;2023-07-31T04:42:03;3.35;;;2.05;;
24206;SDS011;12351;52.284;9.160;2023-07-31T04:44:51;3.95;;;2.45;;
24206;SDS011;12351;52.284;9.160;2023-07-31T04:47:38;5.87;;;2.90;;
24206;SDS011;12351;52.284;9.160;2023-07-31T04:50:25;4.47;;;2.87;;
24206;SDS011;12351;52.284;9.160;2023-07-31T04:53:12;5.60;;;3.60;;
24206;SDS011;12351;52.284;9.160;2023-07-31T04:55:59;6.85;;;3.92;;
24206;SDS011;12351;52.284;9.160;2023-07-31T04:58:46;6.80;;;4.30;;
24206;SDS011;12351;52.284;9.160;2023-07-31T05:01:33;6.75;;;4.37;;
24206;SDS011;12351;52.284;9.160;2023-07-31T05:04:20;8.03;;;4.55;;
24206;SDS011;12351;52.284;9.160;2023-07-31T05:07:06;7.10;;;4.78;;
24206;SDS011;12351;52.284;9.160;2023-07-31T05:09:54;8.03;;;5.37;;
24206;SDS011;12351;52.284;9.160;2023-07-31T05:12:41;9.23;;;5.62;;
24206;SDS011;12351;52.284;9.160;2023-07-31T05:15:28;10.38;;;5.37;;
24206;SDS011;12351;52.284;9.160;2023-07-31T05:18:15;7.83;;;5.33;;
24206;SDS011;12351;52.284;9.160;2023-07-31T05:21:03;7.10;;;5.35;;
24206;SDS011;12351;52.284;9.160;2023-07-31T05:23:50;10.23;;;5.22;;
24206;SDS011;12351;52.284;9.160;2023-07-31T05:26:36;7.78;;;5.50;;
24206;SDS011;12351;52.284;9.160;2023-07-31T05:29:23;10.80;;;5.35;;
24206;SDS011;12351;52.284;9.160;2023-07-31T05:32:11;8.05;;;5.55;;
24206;SDS011;12351;52.284;9.160;2023-07-31T05:34:59;11.68;;;6.03;;
24206;SDS011;12351;52.284;9.160;2023-07-31T05:37:46;10.48;;;6.47;;
24206;SDS011;12351;52.284;9.160;2023-07-31T05:40:33;9.13;;;6.30;;
24206;SDS011;12351;52.284;9.160;2023-07-31T05:43:20;11.53;;;6.22;;
24206;SDS011;12351;52.284;9.160;2023-07-31T05:46:07;7.53;;;5.92;;
24206;SDS011;12351;52.284;9.160;2023-07-31T05:48:54;10.98;;;5.80;;
24206;SDS011;12351;52.284;9.160;2023-07-31T05:51:42;10.43;;;5.90;;
24206;SDS011;12351;52.284;9.160;2023-07-31T05:54:30;12.10;;;6.37;;
24206;SDS011;12351;52.284;9.160;2023-07-31T05:57:18;10.00;;;5.90;;
24206;SDS011;12351;52.284;9.160;2023-07-31T06:00:05;11.78;;;5.83;;
24206;SDS011;12351;52.284;9.160;2023-07-31T06:02:53;12.98;;;6.42;;
24206;SDS011;12351;52.284;9.160;2023-07-31T06:05:40;9.65;;;5.95;;
24206;SDS011;12351;52.284;9.160;2023-07-31T06:08:27;11.15;;;6.60;;
24206;SDS011;12351;52.284;9.160;2023-07-31T06:11:14;10.68;;;6.42;;
24206;SDS011;12351;52.284;9.160;2023-07-31T06:14:01;10.90;;;6.17;;
24206;SDS011;12351;52.284;9.160;2023-07-31T06:16:48;15.18;;;6.35;;
24206;SDS011;12351;52.284;9.160;2023-07-31T06:19:35;10.95;;;6.62;;
24206;SDS011;12351;52.284;9.160;2023-07-31T06:22:22;12.37;;;6.42;;
24206;SDS011;12351;52.284;9.160;2023-07-31T06:25:09;10.93;;;5.90;;
24206;SDS011;12351;52.284;9.160;2023-07-31T06:27:57;13.93;;;6.62;;
24206;SDS011;12351;52.284;9.160;2023-07-31T06:30:44;10.78;;;6.25;;
24206;SDS011;12351;52.284;9.160;2023-07-31T06:33:32;12.20;;;6.37;;
24206;SDS011;12351;52.284;9.160;2023-07-31T06:36:19;9.55;;;6.33;;
24206;SDS011;12351;52.284;9.160;2023-07-31T06:39:06;12.45;;;6.33;;
24206;SDS011;12351;52.284;9.160;2023-07-31T06:41:58;12.55;;;6.30;;
24206;SDS011;12351;52.284;9.160;2023-07-31T06:44:50;13.65;;;6.20;;
24206;SDS011;12351;52.284;9.160;2023-07-31T06:47:40;10.60;;;5.83;;
24206;SDS011;12351;52.284;9.160;2023-07-31T06:50:28;11.85;;;5.92;;
24206;SDS011;12351;52.284;9.160;2023-07-31T06:53:21;10.90;;;6.10;;
24206;SDS011;12351;52.284;9.160;2023-07-31T06:56:13;12.65;;;6.00;;
24206;SDS011;12351;52.284;9.160;2023-07-31T06:59:03;12.55;;;6.20;;
24206;SDS011;12351;52.284;9.160;2023-07-31T07:01:51;9.90;;;5.62;;
24206;SDS011;12351;52.284;9.160;2023-07-31T07:04:39;11.88;;;5.95;;
24206;SDS011;12351;52.284;9.160;2023-07-31T07:07:31;10.53;;;5.72;;
24206;SDS011;12351;52.284;9.160;2023-07-31T07:10:19;11.85;;;5.75;;
24206;SDS011;12351;52.284;9.160;2023-07-31T07:13:08;10.48;;;5.92;;
24206;SDS011;12351;52.284;9.160;2023-07-31T07:15:58;8.58;;;5.45;;
24206;SDS011;12351;52.284;9.160;2023-07-31T07:18:46;10.68;;;5.22;;
24206;SDS011;12351;52.284;9.160;2023-07-31T07:21:37;11.38;;;5.35;;
24206;SDS011;12351;52.284;9.160;2023-07-31T07:24:26;11.20;;;5.20;;
24206;SDS011;12351;52.284;9.160;2023-07-31T07:27:15;9.95;;;4.97;;
24206;SDS011;12351;52.284;9.160;2023-07-31T07:30:04;10.05;;;5.50;;
24206;SDS011;12351;52.284;9.160;2023-07-31T07:32:57;10.93;;;5.10;;
24206;SDS011;12351;52.284;9.160;2023-07-31T07:35:44;10.05;;;4.58;;
24206;SDS011;12351;52.284;9.160;2023-07-31T07:38:34;12.30;;;4.97;;
24206;SDS011;12351;52.284;9.160;2023-07-31T07:41:26;12.90;;;4.70;;
24206;SDS011;12351;52.284;9.160;2023-07-31T07:44:15;8.40;;;4.90;;
24206;SDS011;12351;52.284;9.160;2023-07-31T07:47:07;11.53;;;5.05;;
24206;SDS011;12351;52.284;9.160;2023-07-31T07:49:57;15.97;;;10.20;;
24206;SDS011;12351;52.284;9.160;2023-07-31T07:52:49;9.68;;;5.05;;
24206;SDS011;12351;52.284;9.160;2023-07-31T07:55:40;11.80;;;4.12;;
24206;SDS011;12351;52.284;9.160;2023-07-31T07:58:30;12.45;;;4.53;;
24206;SDS011;12351;52.284;9.160;2023-07-31T08:01:22;10.30;;;4.62;;
24206;SDS011;12351;52.284;9.160;2023-07-31T08:04:11;10.48;;;4.65;;
24206;SDS011;12351;52.284;9.160;2023-07-31T08:07:05;10.23;;;5.00;;
24206;SDS011;12351;52.284;9.160;2023-07-31T08:09:55;8.73;;;4.40;;
24206;SDS011;12351;52.284;9.160;2023-07-31T08:12:46;10.13;;;4.78;;
24206;SDS011;12351;52.284;9.160;2023-07-31T08:15:37;6.37;;;4.10;;
24206;SDS011;12351;52.284;9.160;2023-07-31T08:18:28;11.08;;;4.33;;
24206;SDS011;12351;52.284;9.160;2023-07-31T08:21:17;8.40;;;4.50;;
24206;SDS011;12351;52.284;9.160;2023-07-31T08:24:08;7.37;;;3.90;;
24206;SDS011;12351;52.284;9.160;2023-07-31T08:27:00;6.37;;;4.00;;
24206;SDS011;12351;52.284;9.160;2023-07-31T08:29:51;9.95;;;4.37;;
24206;SDS011;12351;52.284;9.160;2023-07-31T08:32:43;6.95;;;4.00;;
24206;SDS011;12351;52.284;9.160;2023-07-31T08:35:34;7.35;;;4.45;;
24206;SDS011;12351;52.284;9.160;2023-07-31T08:38:23;9.33;;;4.08;;
24206;SDS011;12351;52.284;9.160;2023-07-31T08:41:16;7.33;;;4.55;;
24206;SDS011;12351;52.284;9.160;2023-07-31T08:44:05;8.88;;;4.60;;
24206;SDS011;12351;52.284;9.160;2023-07-31T08:46:57;6.15;;;4.30;;
24206;SDS011;12351;52.284;9.160;2023-07-31T08:49:47;8.17;;;4.17;;
24206;SDS011;12351;52.284;9.160;2023-07-31T08:52:35;6.03;;;3.83;;
24206;SDS011;12351;52.284;9.160;2023-07-31T08:55:22;4.55;;;3.55;;
24206;SDS011;12351;52.284;9.160;2023-07-31T08:58:10;6.60;;;3.70;;
24206;SDS011;12351;52.284;9.160;2023-07-31T09:01:00;4.35;;;3.17;;
24206;SDS011;12351;52.284;9.160;2023-07-31T09:03:49;3.75;;;2.70;;
24206;SDS011;12351;52.284;9.160;2023-07-31T09:06:38;4.12;;;2.60;;
24206;SDS011;12351;52.284;9.160;2023-07-31T09:09:25;3.75;;;2.40;;
24206;SDS011;12351;52.284;9.160;2023-07-31T09:12:13;3.25;;;2.20;;
24206;SDS011;12351;52.284;9.160;2023-07-31T09:15:00;3.70;;;2.10;;
24206;SDS011;12351;52.284;9.160;2023-07-31T09:17:48;5.25;;;2.37;;
24206;SDS011;12351;52.284;9.160;2023-07-31T09:20:37;3.72;;;2.10;;
24206;SDS011;12351;52.284;9.160;2023-07-31T09:23:24;4.33;;;2.40;;
24206;SDS011;12351;52.284;9.160;2023-07-31T09:26:11;2.22;;;1.80;;
24206;SDS011;12351;52.284;9.160;2023-07-31T09:29:01;2.80;;;1.90;;
24206;SDS011;12351;52.284;9.160;2023-07-31T09:31:50;3.60;;;2.08;;
24206;SDS011;12351;52.284;9.160;2023-07-31T09:34:38;3.33;;;1.90;;
24206;SDS011;12351;52.284;9.160;2023-07-31T09:37:25;2.92;;;2.50;;
24206;SDS011;12351;52.284;9.160;2023-07-31T09:40:24;3.42;;;1.90;;
24206;SDS011;12351;52.284;9.160;2023-07-31T09:43:06;2.20;;;1.90;;
24206;SDS011;12351;52.284;9.160;2023-07-31T09:45:55;2.42;;;2.10;;
24206;SDS011;12351;52.284;9.160;2023-07-31T09:48:43;1.95;;;1.72;;
24206;SDS011;12351;52.284;9.160;2023-07-31T09:51:30;2.60;;;2.05;;
24206;SDS011;12351;52.284;9.160;2023-07-31T09:54:19;2.77;;;2.02;;
24206;SDS011;12351;52.284;9.160;2023-07-31T09:57:06;2.08;;;1.70;;
24206;SDS011;12351;52.284;9.160;2023-07-31T09:59:54;3.05;;;1.67;;
24206;SDS011;12351;52.284;9.160;2023-07-31T10:02:45;2.10;;;1.80;;
24206;SDS011;12351;52.284;9.160;2023-07-31T10:05:34;2.77;;;1.57;;
24206;SDS011;12351;52.284;9.160;2023-07-31T10:08:23;3.05;;;1.50;;
24206;SDS011;12351;52.284;9.160;2023-07-31T10:11:12;2.62;;;1.70;;
24206;SDS011;12351;52.284;9.160;2023-07-31T10:14:00;3.10;;;1.82;;
24206;SDS011;12351;52.284;9.160;2023-07-31T10:16:49;3.08;;;1.70;;
24206;SDS011;12351;52.284;9.160;2023-07-31T10:19:36;1.92;;;1.72;;
24206;SDS011;12351;52.284;9.160;2023-07-31T10:22:23;3.45;;;1.87;;
24206;SDS011;12351;52.284;9.160;2023-07-31T10:25:11;3.40;;;1.98;;
24206;SDS011;12351;52.284;9.160;2023-07-31T10:30:47;2.52;;;1.80;;
24206;SDS011;12351;52.284;9.160;2023-07-31T10:33:35;2.83;;;2.00;;
24206;SDS011;12351;52.284;9.160;2023-07-31T10:36:23;2.10;;;1.75;;
24206;SDS011;12351;52.284;9.160;2023-07-31T10:42:09;3.25;;;1.70;;
24206;SDS011;12351;52.284;9.160;2023-07-31T10:44:50;5.03;;;2.00;;
24206;SDS011;12351;52.284;9.160;2023-07-31T10:50:30;2.42;;;1.72;;
24206;SDS011;12351;52.284;9.160;2023-07-31T10:56:09;4.87;;;1.70;;
24206;SDS011;12351;52.284;9.160;2023-07-31T11:04:36;1.72;;;1.30;;
24206;SDS011;12351;52.284;9.160;2023-07-31T11:07:23;3.10;;;1.50;;
24206;SDS011;12351;52.284;9.160;2023-07-31T11:10:10;2.17;;;1.40;;
24206;SDS011;12351;52.284;9.160;2023-07-31T11:12:59;3.58;;;1.40;;
24206;SDS011;12351;52.284;9.160;2023-07-31T11:15:46;1.95;;;1.50;;
24206;SDS011;12351;52.284;9.160;2023-07-31T11:18:33;1.85;;;1.40;;
24206;SDS011;12351;52.284;9.160;2023-07-31T11:21:21;2.55;;;1.30;;
24206;SDS011;12351;52.284;9.160;2023-07-31T11:24:09;0.95;;;0.90;;
24206;SDS011;12351;52.284;9.160;2023-07-31T11:26:58;2.50;;;1.00;;
24206;SDS011;12351;52.284;9.160;2023-07-31T11:29:47;1.15;;;0.90;;
24206;SDS011;12351;52.284;9.160;2023-07-31T11:32:37;0.85;;;0.80;;
24206;SDS011;12351;52.284;9.160;2023-07-31T11:35:24;3.80;;;0.95;;
24206;SDS011;12351;52.284;9.160;2023-07-31T11:38:11;1.30;;;0.90;;
24206;SDS011;12351;52.284;9.160;2023-07-31T11:41:00;2.70;;;1.15;;
24206;SDS011;12351;52.284;9.160;2023-07-31T11:43:48;1.42;;;0.80;;
24206;SDS011;12351;52.284;9.160;2023-07-31T11:46:37;1.10;;;0.80;;
24206;SDS011;12351;52.284;9.160;2023-07-31T11:49:25;1.10;;;0.72;;
24206;SDS011;12351;52.284;9.160;2023-07-31T11:52:12;1.00;;;0.88;;
24206;SDS011;12351;52.284;9.160;2023-07-31T11:54:59;0.80;;;0.80;;
24206;SDS011;12351;52.284;9.160;2023-07-31T11:57:47;0.63;;;0.63;;
24206;SDS011;12351;52.284;9.160;2023-07-31T12:00:34;0.70;;;0.70;;
24206;SDS011;12351;52.284;9.160;2023-07-31T12:03:21;4.10;;;3.12;;
24206;SDS011;12351;52.284;9.160;2023-07-31T12:06:08;1.20;;;1.10;;
24206;SDS011;12351;52.284;9.160;2023-07-31T12:09:00;0.90;;;0.70;;
24206;SDS011;12351;52.284;9.160;2023-07-31T12:11:45;0.70;;;0.67;;
24206;SDS011;12351;52.284;9.160;2023-07-31T12:14:33;2.95;;;0.72;;
24206;SDS011;12351;52.284;9.160;2023-07-31T12:17:20;1.00;;;0.82;;
24206;SDS011;12351;52.284;9.160;2023-07-31T12:20:08;1.22;;;0.80;;
24206;SDS011;12351;52.284;9.160;2023-07-31T12:22:56;1.20;;;0.90;;
24206;SDS011;12351;52.284;9.160;2023-07-31T12:25:43;1.82;;;0.70;;
24206;SDS011;12351;52.284;9.160;2023-07-31T12:28:43;1.05;;;0.85;;
24206;SDS011;12351;52.284;9.160;2023-07-31T12:31:21;0.80;;;0.80;;
24206;SDS011;12351;52.284;9.160;2023-07-31T12:36:58;1.10;;;0.80;;
24206;SDS011;12351;52.284;9.160;2023-07-31T12:39:45;0.70;;;0.70;;
24206;SDS011;12351;52.284;9.160;2023-07-31T12:42:32;1.13;;;0.60;;
24206;SDS011;12351;52.284;9.160;2023-07-31T12:45:20;0.70;;;0.70;;
24206;SDS011;12351;52.284;9.160;2023-07-31T12:48:07;0.97;;;0.70;;
24206;SDS011;12351;52.284;9.160;2023-07-31T12:50:55;1.07;;;0.98;;
24206;SDS011;12351;52.284;9.160;2023-07-31T12:53:42;0.97;;;0.70;;
24206;SDS011;12351;52.284;9.160;2023-07-31T12:56:28;0.83;;;0.80;;
24206;SDS011;12351;52.284;9.160;2023-07-31T12:59:15;0.67;;;0.53;;
24206;SDS011;12351;52.284;9.160;2023-07-31T13:02:02;0.80;;;0.70;;
24206;SDS011;12351;52.284;9.160;2023-07-31T13:04:49;0.50;;;0.50;;
24206;SDS011;12351;52.284;9.160;2023-07-31T13:07:36;1.90;;;0.60;;
24206;SDS011;12351;52.284;9.160;2023-07-31T13:10:24;1.12;;;0.80;;
24206;SDS011;12351;52.284;9.160;2023-07-31T13:13:12;1.35;;;0.60;;
24206;SDS011;12351;52.284;9.160;2023-07-31T13:15:59;1.75;;;0.60;;
24206;SDS011;12351;52.284;9.160;2023-07-31T13:18:46;1.02;;;0.80;;
24206;SDS011;12351;52.284;9.160;2023-07-31T13:21:33;0.80;;;0.70;;
24206;SDS011;12351;52.284;9.160;2023-07-31T13:24:21;1.07;;;0.60;;
24206;SDS011;12351;52.284;9.160;2023-07-31T13:27:08;0.80;;;0.70;;
24206;SDS011;12351;52.284;9.160;2023-07-31T13:29:55;0.73;;;0.70;;
24206;SDS011;12351;52.284;9.160;2023-07-31T13:32:42;0.80;;;0.80;;
24206;SDS011;12351;52.284;9.160;2023-07-31T13:35:29;2.20;;;0.65;;
24206;SDS011;12351;52.284;9.160;2023-07-31T13:38:16;0.87;;;0.70;;
24206;SDS011;12351;52.284;9.160;2023-07-31T13:41:03;0.83;;;0.83;;
24206;SDS011;12351;52.284;9.160;2023-07-31T13:43:50;0.83;;;0.83;;
24206;SDS011;12351;52.284;9.160;2023-07-31T13:46:37;2.10;;;1.10;;
24206;SDS011;12351;52.284;9.160;2023-07-31T13:49:24;1.42;;;1.07;;
24206;SDS011;12351;52.284;9.160;2023-07-31T13:52:11;1.45;;;1.30;;
24206;SDS011;12351;52.284;9.160;2023-07-31T13:54:58;1.37;;;1.27;;
24206;SDS011;12351;52.284;9.160;2023-07-31T13:57:45;2.10;;;1.45;;
24206;SDS011;12351;52.284;9.160;2023-07-31T14:00:33;1.98;;;1.87;;
24206;SDS011;12351;52.284;9.160;2023-07-31T14:03:20;3.17;;;2.77;;
24206;SDS011;12351;52.284;9.160;2023-07-31T14:06:07;2.77;;;2.58;;
24206;SDS011;12351;52.284;9.160;2023-07-31T14:08:54;4.17;;;2.90;;
24206;SDS011;12351;52.284;9.160;2023-07-31T14:11:41;3.45;;;2.55;;
24206;SDS011;12351;52.284;9.160;2023-07-31T14:14:28;3.05;;;2.75;;
24206;SDS011;12351;52.284;9.160;2023-07-31T14:17:15;3.47;;;2.77;;
24206;SDS011;12351;52.284;9.160;2023-07-31T14:20:03;3.58;;;2.80;;
24206;SDS011;12351;52.284;9.160;2023-07-31T14:22:50;3.27;;;2.98;;
24206;SDS011;12351;52.284;9.160;2023-07-31T14:25:37;3.17;;;2.70;;
24206;SDS011;12351;52.284;9.160;2023-07-31T14:28:24;3.20;;;2.90;;
24206;SDS011;12351;52.284;9.160;2023-07-31T14:31:10;3.22;;;2.90;;
24206;SDS011;12351;52.284;9.160;2023-07-31T14:33:57;3.83;;;2.98;;
24206;SDS011;12351;52.284;9.160;2023-07-31T14:36:44;4.70;;;2.57;;
24206;SDS011;12351;52.284;9.160;2023-07-31T14:39:31;3.00;;;2.70;;
24206;SDS011;12351;52.284;9.160;2023-07-31T14:42:18;2.57;;;2.37;;
24206;SDS011;12351;52.284;9.160;2023-07-31T14:45:05;3.47;;;2.37;;
24206;SDS011;12351;52.284;9.160;2023-07-31T14:47:53;2.70;;;2.50;;
24206;SDS011;12351;52.284;9.160;2023-07-31T14:50:40;3.77;;;2.22;;
24206;SDS011;12351;52.284;9.160;2023-07-31T14:53:27;5.73;;;2.20;;
24206;SDS011;12351;52.284;9.160;2023-07-31T14:56:14;2.30;;;2.00;;
24206;SDS011;12351;52.284;9.160;2023-07-31T14:59:01;5.17;;;2.40;;
24206;SDS011;12351;52.284;9.160;2023-07-31T15:01:48;2.90;;;2.60;;
24206;SDS011;12351;52.284;9.160;2023-07-31T15:04:35;2.73;;;2.50;;
24206;SDS011;12351;52.284;9.160;2023-07-31T15:07:22;2.87;;;2.57;;
24206;SDS011;12351;52.284;9.160;2023-07-31T15:10:09;2.60;;;2.40;;
24206;SDS011;12351;52.284;9.160;2023-07-31T15:12:56;6.60;;;2.63;;
24206;SDS011;12351;52.284;9.160;2023-07-31T15:15:43;4.73;;;2.90;;
24206;SDS011;12351;52.284;9.160;2023-07-31T15:18:30;3.00;;;2.57;;
24206;SDS011;12351;52.284;9.160;2023-07-31T15:21:17;3.73;;;2.80;;
24206;SDS011;12351;52.284;9.160;2023-07-31T15:24:04;3.00;;;2.70;;
24206;SDS011;12351;52.284;9.160;2023-07-31T15:26:51;2.97;;;2.70;;
24206;SDS011;12351;52.284;9.160;2023-07-31T15:29:37;3.00;;;2.47;;
24206;SDS011;12351;52.284;9.160;2023-07-31T15:32:24;3.37;;;2.60;;
24206;SDS011;12351;52.284;9.160;2023-07-31T15:35:11;2.70;;;2.50;;
24206;SDS011;12351;52.284;9.160;2023-07-31T15:37:58;4.03;;;2.80;;
24206;SDS011;12351;52.284;9.160;2023-07-31T15:40:44;3.13;;;2.80;;
24206;SDS011;12351;52.284;9.160;2023-07-31T15:43:31;6.23;;;3.10;;
24206;SDS011;12351;52.284;9.160;2023-07-31T15:49:06;3.47;;;3.17;;
24206;SDS011;12351;52.284;9.160;2023-07-31T15:51:53;3.67;;;3.30;;
24206;SDS011;12351;52.284;9.160;2023-07-31T15:54:40;3.70;;;3.30;;
24206;SDS011;12351;52.284;9.160;2023-07-31T15:57:27;3.43;;;3.13;;
24206;SDS011;12351;52.284;9.160;2023-07-31T16:00:14;4.07;;;3.27;;
24206;SDS011;12351;52.284;9.160;2023-07-31T16:03:02;3.40;;;3.10;;
24206;SDS011;12351;52.284;9.160;2023-07-31T16:05:49;3.20;;;2.90;;
24206;SDS011;12351;52.284;9.160;2023-07-31T16:08:36;3.30;;;2.97;;
24206;SDS011;12351;52.284;9.160;2023-07-31T16:11:24;2.90;;;2.60;;
24206;SDS011;12351;52.284;9.160;2023-07-31T16:14:12;3.00;;;2.47;;
24206;SDS011;12351;52.284;9.160;2023-07-31T16:16:59;3.10;;;2.27;;
24206;SDS011;12351;52.284;9.160;2023-07-31T16:19:46;4.50;;;2.33;;
24206;SDS011;12351;52.284;9.160;2023-07-31T16:22:32;2.70;;;2.33;;
24206;SDS011;12351;52.284;9.160;2023-07-31T16:25:19;4.97;;;2.10;;
24206;SDS011;12351;52.284;9.160;2023-07-31T16:28:06;2.23;;;1.97;;
24206;SDS011;12351;52.284;9.160;2023-07-31T16:30:53;2.30;;;2.10;;
24206;SDS011;12351;52.284;9.160;2023-07-31T16:33:40;3.03;;;2.17;;
24206;SDS011;12351;52.284;9.160;2023-07-31T16:36:27;2.83;;;2.07;;
24206;SDS011;12351;52.284;9.160;2023-07-31T16:39:14;2.87;;;2.30;;
24206;SDS011;12351;52.284;9.160;2023-07-31T16:42:01;3.87;;;2.30;;
24206;SDS011;12351;52.284;9.160;2023-07-31T16:44:48;2.87;;;2.60;;
24206;SDS011;12351;52.284;9.160;2023-07-31T16:47:35;3.00;;;2.40;;
24206;SDS011;12351;52.284;9.160;2023-07-31T16:50:22;4.17;;;2.00;;
24206;SDS011;12351;52.284;9.160;2023-07-31T16:53:09;3.07;;;2.13;;
24206;SDS011;12351;52.284;9.160;2023-07-31T16:55:56;3.00;;;2.33;;
24206;SDS011;12351;52.284;9.160;2023-07-31T16:58:44;3.37;;;2.37;;
24206;SDS011;12351;52.284;9.160;2023-07-31T17:01:32;2.52;;;2.27;;
24206;SDS011;12351;52.284;9.160;2023-07-31T17:04:19;2.80;;;2.50;;
24206;SDS011;12351;52.284;9.160;2023-07-31T17:07:05;2.53;;;2.33;;
24206;SDS011;12351;52.284;9.160;2023-07-31T17:09:52;3.43;;;2.40;;
24206;SDS011;12351;52.284;9.160;2023-07-31T17:12:40;3.23;;;2.50;;
24206;SDS011;12351;52.284;9.160;2023-07-31T17:15:26;3.53;;;2.47;;
24206;SDS011;12351;52.284;9.160;2023-07-31T17:18:14;5.10;;;2.57;;
24206;SDS011;12351;52.284;9.160;2023-07-31T17:23:51;2.50;;;2.20;;